createdAt,value
2023-09-06T00:00:56.829Z,18.80
2023-09-06T00:03:24.414Z,18.80
2023-09-06T00:05:51.510Z,18.80
2023-09-06T00:08:18.422Z,18.80
2023-09-06T00:10:45.455Z,18.80
2023-09-06T00:13:13.633Z,18.80
2023-09-06T00:15:40.767Z,18.80
2023-09-06T00:18:08.011Z,18.70
2023-09-06T00:20:35.833Z,18.70
2023-09-06T00:23:06.018Z,18.70
2023-09-06T00:25:33.209Z,18.70
2023-09-06T00:28:01.698Z,18.70
2023-09-06T00:30:29.287Z,18.60
2023-09-06T00:32:56.448Z,18.60
2023-09-06T00:35:25.472Z,18.50
2023-09-06T00:37:55.603Z,18.50
2023-09-06T00:40:23.074Z,18.60
2023-09-06T00:42:54.681Z,18.60
2023-09-06T00:45:27.537Z,18.50
2023-09-06T00:47:56.469Z,18.60
2023-09-06T00:50:23.535Z,18.50
2023-09-06T00:52:51.995Z,18.50
2023-09-06T00:55:19.915Z,18.50
2023-09-06T00:57:47.202Z,18.50
2023-09-06T01:00:19.111Z,18.50
2023-09-06T01:02:48.188Z,18.40
2023-09-06T01:05:17.800Z,18.40
2023-09-06T01:07:51.777Z,18.30
2023-09-06T01:10:19.162Z,18.30
2023-09-06T01:12:46.160Z,18.30
2023-09-06T01:15:13.354Z,18.30
2023-09-06T01:17:42.917Z,18.30
2023-09-06T01:20:25.048Z,18.30
2023-09-06T01:23:05.304Z,18.30
2023-09-06T01:25:32.258Z,18.20
2023-09-06T01:27:59.385Z,18.20
2023-09-06T01:30:30.806Z,18.20
2023-09-06T01:32:57.794Z,18.20
2023-09-06T01:35:24.795Z,18.10
2023-09-06T01:37:51.786Z,18.20
2023-09-06T01:40:19.102Z,18.10
2023-09-06T01:42:46.106Z,18.10
2023-09-06T01:45:15.913Z,18.10
2023-09-06T01:47:42.846Z,18.10
2023-09-06T01:50:10.107Z,18.10
2023-09-06T01:52:38.005Z,18.10
2023-09-06T01:55:06.282Z,18.10
2023-09-06T01:57:33.354Z,18.10
2023-09-06T02:00:00.270Z,18.10
2023-09-06T02:02:27.216Z,18.00
2023-09-06T02:04:54.961Z,18.00
2023-09-06T02:07:21.962Z,17.90
2023-09-06T02:09:49.044Z,17.90
2023-09-06T02:12:15.972Z,17.90
2023-09-06T02:14:42.915Z,17.90
2023-09-06T02:17:09.913Z,17.90
2023-09-06T02:19:36.996Z,17.90
2023-09-06T02:22:04.694Z,18.00
2023-09-06T02:24:31.545Z,18.00
2023-09-06T02:26:59.690Z,18.10
2023-09-06T02:29:29.239Z,18.00
2023-09-06T02:31:56.268Z,18.10
2023-09-06T02:34:23.329Z,18.00
2023-09-06T02:36:50.423Z,18.10
2023-09-06T02:39:17.276Z,18.00
2023-09-06T02:41:44.200Z,18.00
2023-09-06T02:44:11.217Z,17.90
2023-09-06T02:46:39.501Z,17.80
2023-09-06T02:49:13.447Z,17.80
2023-09-06T02:51:43.850Z,17.70
2023-09-06T02:54:10.967Z,17.80
2023-09-06T02:56:38.819Z,17.70
2023-09-06T02:59:09.075Z,17.80
2023-09-06T03:01:39.292Z,17.80
2023-09-06T03:04:08.071Z,17.80
2023-09-06T03:06:35.439Z,17.80
2023-09-06T03:09:08.613Z,17.70
2023-09-06T03:11:37.166Z,17.70
2023-09-06T03:14:05.077Z,17.70
2023-09-06T03:16:39.810Z,17.60
2023-09-06T03:19:11.843Z,17.60
2023-09-06T03:21:38.925Z,17.60
2023-09-06T03:24:13.526Z,17.60
2023-09-06T03:26:45.576Z,17.60
2023-09-06T03:29:16.361Z,17.60
2023-09-06T03:31:44.139Z,17.60
2023-09-06T03:34:16.721Z,17.60
2023-09-06T03:36:52.884Z,17.60
2023-09-06T03:39:21.313Z,17.60
2023-09-06T03:41:49.672Z,17.60
2023-09-06T03:44:17.371Z,17.60
2023-09-06T03:46:44.786Z,17.60
2023-09-06T03:49:14.386Z,17.60
2023-09-06T03:51:41.394Z,17.60
2023-09-06T03:54:08.307Z,17.60
2023-09-06T03:56:39.165Z,17.50
2023-09-06T03:59:09.608Z,17.50
2023-09-06T04:01:37.513Z,17.50
2023-09-06T04:04:05.554Z,17.60
2023-09-06T04:06:32.749Z,17.50
2023-09-06T04:09:00.056Z,17.50
2023-09-06T04:11:27.045Z,17.50
2023-09-06T04:13:56.986Z,17.50
2023-09-06T04:16:26.401Z,17.50
2023-09-06T04:18:53.669Z,17.40
2023-09-06T04:21:21.275Z,17.40
2023-09-06T04:23:49.925Z,17.50
2023-09-06T04:26:21.310Z,17.50
2023-09-06T04:28:49.177Z,17.40
2023-09-06T04:31:19.310Z,17.40
2023-09-06T04:33:47.807Z,17.40
2023-09-06T04:36:20.276Z,17.30
2023-09-06T04:38:50.365Z,17.30
2023-09-06T04:41:17.426Z,17.40
2023-09-06T04:43:52.419Z,17.40
2023-09-06T04:46:20.368Z,17.40
2023-09-06T04:48:50.210Z,17.40
2023-09-06T04:51:17.133Z,17.30
2023-09-06T04:53:45.235Z,17.30
2023-09-06T04:56:14.745Z,17.30
2023-09-06T04:58:50.127Z,17.40
2023-09-06T05:01:17.013Z,17.30
2023-09-06T05:03:47.447Z,17.30
2023-09-06T05:06:14.767Z,17.30
2023-09-06T05:08:42.863Z,17.30
2023-09-06T05:11:17.583Z,17.30
2023-09-06T05:13:47.782Z,17.30
2023-09-06T05:16:14.973Z,17.30
2023-09-06T05:18:42.074Z,17.30
2023-09-06T05:21:09.185Z,17.30
2023-09-06T05:23:38.492Z,17.30
2023-09-06T05:26:08.035Z,17.20
2023-09-06T05:28:45.092Z,17.20
2023-09-06T05:31:13.732Z,17.20
2023-09-06T05:33:46.290Z,17.20
2023-09-06T05:36:15.701Z,17.20
2023-09-06T05:38:43.099Z,17.20
2023-09-06T05:41:12.961Z,17.30
2023-09-06T05:43:42.797Z,17.20
2023-09-06T05:46:29.758Z,17.20
2023-09-06T05:48:58.852Z,17.20
2023-09-06T05:51:31.524Z,17.20
2023-09-06T05:54:01.797Z,17.20
2023-09-06T05:56:29.869Z,17.30
2023-09-06T05:58:56.849Z,17.30
2023-09-06T06:01:23.833Z,17.30
2023-09-06T06:03:50.899Z,17.30
2023-09-06T06:06:19.531Z,17.30
2023-09-06T06:08:46.476Z,17.40
2023-09-06T06:11:13.437Z,17.40
2023-09-06T06:13:40.518Z,17.40
2023-09-06T06:16:09.659Z,17.50
2023-09-06T06:18:36.705Z,17.50
2023-09-06T06:21:05.153Z,17.50
2023-09-06T06:23:32.286Z,17.60
2023-09-06T06:25:59.342Z,17.70
2023-09-06T06:28:26.465Z,17.70
2023-09-06T06:30:53.599Z,17.80
2023-09-06T06:33:20.614Z,17.80
2023-09-06T06:35:47.754Z,17.80
2023-09-06T06:38:14.739Z,17.90
2023-09-06T06:40:41.887Z,17.90
2023-09-06T06:43:08.849Z,18.00
2023-09-06T06:45:36.199Z,18.10
2023-09-06T06:48:03.444Z,18.10
2023-09-06T06:50:30.382Z,18.20
2023-09-06T06:52:57.376Z,18.30
2023-09-06T06:55:24.461Z,18.40
2023-09-06T06:57:51.490Z,18.40
2023-09-06T07:00:18.935Z,18.50
2023-09-06T07:02:46.763Z,18.50
2023-09-06T07:05:14.193Z,18.60
2023-09-06T07:07:41.286Z,18.60
2023-09-06T07:10:09.125Z,18.60
2023-09-06T07:12:36.853Z,18.60
2023-09-06T07:15:04.375Z,18.60
2023-09-06T07:17:31.466Z,18.60
2023-09-06T07:19:59.655Z,18.70
2023-09-06T07:22:27.020Z,18.80
2023-09-06T07:24:54.079Z,18.80
2023-09-06T07:27:22.253Z,18.80
2023-09-06T07:29:49.547Z,18.90
2023-09-06T07:32:16.555Z,19.00
2023-09-06T07:34:43.668Z,19.00
2023-09-06T07:37:11.313Z,19.00
2023-09-06T07:39:38.898Z,19.00
2023-09-06T07:42:08.954Z,19.10
2023-09-06T07:44:37.177Z,19.10
2023-09-06T07:47:04.578Z,19.20
2023-09-06T07:49:32.641Z,19.30
2023-09-06T07:52:01.391Z,19.30
2023-09-06T07:54:28.336Z,19.30
2023-09-06T07:56:55.202Z,19.30
2023-09-06T07:59:23.658Z,19.40
2023-09-06T08:01:50.787Z,19.40
2023-09-06T08:04:20.394Z,19.50
2023-09-06T08:06:47.800Z,19.50
2023-09-06T08:09:15.111Z,19.60
2023-09-06T08:11:42.141Z,19.70
2023-09-06T08:14:09.178Z,19.80
2023-09-06T08:16:36.052Z,19.80
2023-09-06T08:19:04.483Z,19.90
2023-09-06T08:21:31.806Z,20.00
2023-09-06T08:23:58.925Z,20.00
2023-09-06T08:26:26.213Z,20.10
2023-09-06T08:28:54.112Z,20.10
2023-09-06T08:31:21.215Z,20.20
2023-09-06T08:33:49.518Z,20.20
2023-09-06T08:36:16.667Z,20.30
2023-09-06T08:38:43.657Z,20.30
2023-09-06T08:41:10.651Z,20.40
2023-09-06T08:43:40.517Z,20.40
2023-09-06T08:46:39.513Z,20.40
2023-09-06T08:49:06.622Z,20.50
2023-09-06T08:51:36.899Z,20.60
2023-09-06T08:54:05.918Z,20.70
2023-09-06T08:56:33.818Z,20.70
2023-09-06T08:59:00.890Z,20.80
2023-09-06T09:01:29.652Z,20.80
2023-09-06T09:03:57.039Z,20.80
2023-09-06T09:06:24.112Z,21.00
2023-09-06T09:08:51.367Z,21.00
2023-09-06T09:11:21.239Z,21.10
2023-09-06T09:13:48.416Z,21.20
2023-09-06T09:16:18.069Z,21.20
2023-09-06T09:18:45.622Z,21.20
2023-09-06T09:21:13.452Z,21.30
2023-09-06T09:24:00.650Z,21.40
2023-09-06T09:26:27.520Z,21.50
2023-09-06T09:28:55.510Z,21.60
2023-09-06T09:31:22.446Z,21.60
2023-09-06T09:33:52.624Z,21.70
2023-09-06T09:36:19.742Z,21.70
2023-09-06T09:38:54.084Z,21.80
2023-09-06T09:41:21.318Z,21.90
2023-09-06T09:43:48.415Z,22.00
2023-09-06T09:46:28.652Z,22.10
2023-09-06T09:49:00.249Z,22.20
2023-09-06T09:51:27.310Z,22.20
2023-09-06T09:53:54.304Z,22.30
2023-09-06T09:56:21.233Z,22.40
2023-09-06T09:58:48.202Z,22.40
2023-09-06T10:01:16.357Z,22.50
2023-09-06T10:03:45.062Z,22.60
2023-09-06T10:06:12.470Z,22.70
2023-09-06T10:08:39.553Z,22.80
2023-09-06T10:11:07.518Z,22.90
2023-09-06T10:13:35.282Z,22.90
2023-09-06T10:16:02.469Z,22.90
2023-09-06T10:18:29.832Z,23.00
2023-09-06T10:20:57.293Z,23.10
2023-09-06T10:23:24.550Z,23.10
2023-09-06T10:25:52.906Z,23.20
2023-09-06T10:28:26.026Z,23.30
2023-09-06T10:31:08.940Z,23.40
2023-09-06T10:33:45.394Z,23.40
2023-09-06T10:36:19.126Z,23.50
2023-09-06T10:39:15.436Z,23.50
2023-09-06T10:42:14.787Z,23.60
2023-09-06T10:44:57.147Z,23.70
2023-09-06T10:47:37.470Z,23.80
2023-09-06T10:50:08.547Z,23.80
2023-09-06T10:53:07.485Z,23.90
2023-09-06T10:55:44.676Z,24.00
2023-09-06T10:58:12.347Z,24.00
2023-09-06T11:00:40.038Z,24.00
2023-09-06T11:03:10.756Z,24.10
2023-09-06T11:05:40.026Z,24.10
2023-09-06T11:08:09.381Z,24.20
2023-09-06T11:10:36.780Z,24.30
2023-09-06T11:13:13.819Z,24.30
2023-09-06T11:15:41.058Z,24.40
2023-09-06T11:18:08.899Z,24.40
2023-09-06T11:20:36.113Z,24.40
2023-09-06T11:23:03.634Z,24.50
2023-09-06T11:25:31.824Z,24.60
2023-09-06T11:28:01.078Z,24.60
2023-09-06T11:30:28.314Z,24.70
2023-09-06T11:32:56.390Z,24.70
2023-09-06T11:35:33.601Z,24.80
2023-09-06T11:38:00.549Z,24.90
2023-09-06T11:40:29.646Z,24.90
2023-09-06T11:42:58.888Z,25.00
2023-09-06T11:45:26.981Z,25.00
2023-09-06T11:48:00.534Z,25.20
2023-09-06T11:53:05.645Z,25.40
2023-09-06T11:55:35.862Z,25.40
2023-09-06T11:58:03.126Z,25.40
2023-09-06T12:00:44.856Z,25.60
2023-09-06T12:03:14.427Z,25.60
2023-09-06T12:05:49.816Z,25.70
2023-09-06T12:08:21.736Z,25.80
2023-09-06T12:10:53.711Z,25.80
2023-09-06T12:13:32.029Z,25.80
2023-09-06T12:15:59.732Z,25.90
2023-09-06T12:18:29.509Z,25.90
2023-09-06T12:20:58.065Z,25.90
2023-09-06T12:23:27.849Z,26.00
2023-09-06T12:25:54.801Z,26.10
2023-09-06T12:28:21.722Z,26.10
2023-09-06T12:30:50.096Z,26.20
2023-09-06T12:33:17.171Z,26.30
2023-09-06T12:35:46.165Z,26.40
2023-09-06T12:38:13.243Z,26.40
2023-09-06T12:40:40.620Z,26.60
2023-09-06T12:43:07.962Z,26.70
2023-09-06T12:45:35.307Z,26.70
2023-09-06T12:48:02.472Z,26.70
2023-09-06T12:50:29.841Z,26.80
2023-09-06T12:52:59.783Z,26.80
2023-09-06T12:55:27.896Z,26.90
2023-09-06T12:57:54.943Z,26.90
2023-09-06T13:00:22.046Z,27.00
2023-09-06T13:02:49.027Z,27.00
2023-09-06T13:05:21.652Z,27.00
2023-09-06T13:07:48.878Z,27.00
2023-09-06T13:10:17.883Z,27.10
2023-09-06T13:12:45.622Z,27.10
2023-09-06T13:15:15.107Z,27.20
2023-09-06T13:17:42.217Z,27.20
2023-09-06T13:20:12.076Z,27.20
2023-09-06T13:22:39.841Z,27.20
2023-09-06T13:25:10.515Z,27.20
2023-09-06T13:27:39.824Z,27.20
2023-09-06T13:30:07.278Z,27.30
2023-09-06T13:32:34.302Z,27.40
2023-09-06T13:35:01.354Z,27.50
2023-09-06T13:37:28.572Z,27.60
2023-09-06T13:39:55.598Z,27.50
2023-09-06T13:42:24.683Z,27.50
2023-09-06T13:44:51.661Z,27.60
2023-09-06T13:47:18.735Z,27.60
2023-09-06T13:49:45.755Z,27.70
2023-09-06T13:52:15.603Z,27.70
2023-09-06T13:54:44.631Z,27.70
2023-09-06T13:57:11.619Z,27.80
2023-09-06T13:59:39.441Z,27.80
2023-09-06T14:02:09.457Z,28.00
2023-09-06T14:04:36.952Z,28.10
2023-09-06T14:07:04.324Z,28.20
2023-09-06T14:09:31.627Z,28.20
2023-09-06T14:11:58.630Z,28.30
2023-09-06T14:14:25.571Z,28.30
2023-09-06T14:16:53.729Z,28.20
2023-09-06T14:19:29.350Z,28.30
2023-09-06T14:21:57.118Z,28.30
2023-09-06T14:24:24.095Z,28.40
2023-09-06T14:26:51.026Z,28.40
2023-09-06T14:29:18.081Z,28.40
2023-09-06T14:31:47.694Z,28.40
2023-09-06T14:34:16.730Z,28.40
2023-09-06T14:36:43.819Z,28.40
2023-09-06T14:39:10.785Z,28.40
2023-09-06T14:41:37.929Z,28.30
2023-09-06T14:44:06.385Z,28.30
2023-09-06T14:46:36.555Z,28.30
2023-09-06T14:49:03.610Z,28.40
2023-09-06T14:51:30.644Z,28.40
2023-09-06T14:53:57.853Z,28.40
2023-09-06T14:56:24.820Z,28.50
2023-09-06T14:58:51.768Z,28.50
2023-09-06T15:01:18.783Z,28.60
2023-09-06T15:03:46.038Z,28.60
2023-09-06T15:06:14.673Z,28.70
2023-09-06T15:08:42.450Z,28.70
2023-09-06T15:11:10.286Z,28.80
2023-09-06T15:13:37.383Z,28.80
2023-09-06T15:16:04.501Z,28.90
2023-09-06T15:18:31.953Z,29.00
2023-09-06T15:21:04.001Z,29.10
2023-09-06T15:23:31.166Z,29.20
2023-09-06T15:25:59.371Z,29.20
2023-09-06T15:28:27.303Z,29.20
2023-09-06T15:30:54.736Z,29.10
2023-09-06T15:33:25.075Z,29.10
2023-09-06T15:35:55.954Z,29.00
2023-09-06T15:38:23.287Z,29.00
2023-09-06T15:40:52.879Z,28.90
2023-09-06T15:43:20.536Z,28.90
2023-09-06T15:45:47.478Z,28.90
2023-09-06T15:48:17.222Z,28.90
2023-09-06T15:50:44.303Z,28.80
2023-09-06T15:53:11.354Z,28.90
2023-09-06T15:55:38.416Z,28.80
2023-09-06T15:58:06.367Z,28.80
2023-09-06T16:00:33.518Z,28.80
2023-09-06T16:03:00.943Z,28.80
2023-09-06T16:05:31.879Z,28.80
2023-09-06T16:08:01.929Z,28.80
2023-09-06T16:10:29.020Z,28.80
2023-09-06T16:12:56.464Z,28.70
2023-09-06T16:15:24.261Z,28.70
2023-09-06T16:17:55.012Z,28.70
2023-09-06T16:20:22.075Z,28.70
2023-09-06T16:22:49.053Z,28.70
2023-09-06T16:25:16.085Z,28.70
2023-09-06T16:27:44.093Z,28.70
2023-09-06T16:30:11.559Z,28.70
2023-09-06T16:32:39.166Z,28.60
2023-09-06T16:35:09.346Z,28.60
2023-09-06T16:37:39.691Z,28.60
2023-09-06T16:40:12.587Z,28.60
2023-09-06T16:42:41.064Z,28.60
2023-09-06T16:45:08.952Z,28.60
2023-09-06T16:47:35.911Z,28.50
2023-09-06T16:50:05.434Z,28.50
2023-09-06T16:52:32.626Z,28.50
2023-09-06T16:55:00.826Z,28.50
2023-09-06T16:57:27.856Z,28.40
2023-09-06T16:59:54.850Z,28.40
2023-09-06T17:02:24.084Z,28.40
2023-09-06T17:04:51.592Z,28.40
2023-09-06T17:07:18.577Z,28.40
2023-09-06T17:09:48.887Z,28.40
2023-09-06T17:12:16.143Z,28.40
2023-09-06T17:14:43.248Z,28.30
2023-09-06T17:17:10.380Z,28.30
2023-09-06T17:19:37.537Z,28.20
2023-09-06T17:22:04.616Z,28.10
2023-09-06T17:24:31.610Z,28.10
2023-09-06T17:26:58.681Z,28.00
2023-09-06T17:29:25.807Z,28.00
2023-09-06T17:31:54.949Z,27.90
2023-09-06T17:34:22.962Z,27.90
2023-09-06T17:36:58.023Z,27.80
2023-09-06T17:39:28.314Z,27.80
2023-09-06T17:41:55.232Z,27.80
2023-09-06T17:44:22.545Z,27.80
2023-09-06T17:46:51.890Z,27.70
2023-09-06T17:49:22.617Z,27.70
2023-09-06T17:51:52.962Z,27.60
2023-09-06T17:54:24.507Z,27.60
2023-09-06T17:56:52.484Z,27.50
2023-09-06T17:59:21.694Z,27.50
2023-09-06T18:01:48.887Z,27.40
2023-09-06T18:04:16.293Z,27.30
2023-09-06T18:06:43.425Z,27.30
2023-09-06T18:09:11.382Z,27.20
2023-09-06T18:11:39.837Z,27.10
2023-09-06T18:14:11.942Z,27.10
2023-09-06T18:16:43.365Z,27.00
2023-09-06T18:19:10.851Z,26.90
2023-09-06T18:21:44.382Z,26.80
2023-09-06T18:24:15.640Z,26.80
2023-09-06T18:26:48.562Z,26.70
2023-09-06T18:29:21.564Z,26.60
2023-09-06T18:31:48.567Z,26.60
2023-09-06T18:34:15.788Z,26.50
2023-09-06T18:36:43.220Z,26.50
2023-09-06T18:39:16.030Z,26.40
2023-09-06T18:41:43.476Z,26.30
2023-09-06T18:44:10.369Z,26.30
2023-09-06T18:46:37.395Z,26.20
2023-09-06T18:49:08.291Z,26.10
2023-09-06T18:51:35.763Z,26.10
2023-09-06T18:54:02.683Z,26.10
2023-09-06T18:56:35.244Z,26.00
2023-09-06T18:59:02.452Z,25.90
2023-09-06T19:01:31.699Z,25.90
2023-09-06T19:03:59.261Z,25.80
2023-09-06T19:06:35.284Z,25.80
2023-09-06T19:09:02.278Z,25.80
2023-09-06T19:11:29.443Z,25.70
2023-09-06T19:13:58.969Z,25.60
2023-09-06T19:16:27.952Z,25.60
2023-09-06T19:18:57.141Z,25.60
2023-09-06T19:21:24.336Z,25.50
2023-09-06T19:23:51.401Z,25.50
2023-09-06T19:26:18.475Z,25.50
2023-09-06T19:28:47.595Z,25.40
2023-09-06T19:31:14.747Z,25.40
2023-09-06T19:33:41.662Z,25.30
2023-09-06T19:36:08.619Z,25.20
2023-09-06T19:38:35.704Z,25.20
2023-09-06T19:41:02.710Z,25.20
2023-09-06T19:43:29.827Z,25.20
2023-09-06T19:45:57.099Z,25.10
2023-09-06T19:48:24.631Z,25.10
2023-09-06T19:50:51.811Z,25.00
2023-09-06T19:53:24.314Z,25.00
2023-09-06T19:55:53.886Z,24.90
2023-09-06T19:58:20.990Z,24.80
2023-09-06T20:00:48.329Z,24.80
2023-09-06T20:03:15.716Z,24.70
2023-09-06T20:05:43.268Z,24.70
2023-09-06T20:08:12.439Z,24.70
2023-09-06T20:10:50.236Z,24.60
2023-09-06T20:13:19.282Z,24.60
2023-09-06T20:15:46.312Z,24.50
2023-09-06T20:18:16.032Z,24.40
2023-09-06T20:20:44.522Z,24.40
2023-09-06T20:23:11.810Z,24.40
2023-09-06T20:25:39.250Z,24.30
2023-09-06T20:28:09.214Z,24.30
2023-09-06T20:30:42.479Z,24.20
2023-09-06T20:33:10.290Z,24.20
2023-09-06T20:35:42.501Z,24.10
2023-09-06T20:38:09.693Z,24.10
2023-09-06T20:40:39.077Z,24.00
2023-09-06T20:43:06.106Z,24.00
2023-09-06T20:45:34.126Z,23.90
2023-09-06T20:48:03.817Z,23.80
2023-09-06T20:50:30.945Z,23.80
2023-09-06T20:52:59.938Z,23.80
2023-09-06T20:55:28.135Z,23.70
2023-09-06T20:57:55.155Z,23.70
2023-09-06T21:00:24.325Z,23.70
2023-09-06T21:02:53.828Z,23.70
2023-09-06T21:05:20.788Z,23.70
2023-09-06T21:07:50.091Z,23.70
2023-09-06T21:10:17.153Z,23.60
2023-09-06T21:12:44.130Z,23.50
2023-09-06T21:15:11.495Z,23.50
2023-09-06T21:17:38.447Z,23.40
2023-09-06T21:20:06.336Z,23.40
2023-09-06T21:22:33.573Z,23.40
2023-09-06T21:25:03.609Z,23.30
2023-09-06T21:27:32.635Z,23.40
2023-09-06T21:29:59.602Z,23.30
2023-09-06T21:32:26.593Z,23.30
2023-09-06T21:34:53.572Z,23.20
2023-09-06T21:37:20.561Z,23.10
2023-09-06T21:39:47.488Z,23.10
2023-09-06T21:42:16.539Z,23.10
2023-09-06T21:44:43.627Z,23.00
2023-09-06T21:47:12.610Z,23.00
2023-09-06T21:49:39.688Z,23.00
2023-09-06T21:52:09.256Z,23.00
2023-09-06T21:54:39.042Z,22.90
2023-09-06T21:57:06.291Z,22.90
2023-09-06T21:59:33.342Z,22.80
2023-09-06T22:02:00.335Z,22.70
2023-09-06T22:04:46.214Z,22.70
2023-09-06T22:07:31.907Z,22.60
2023-09-06T22:10:17.563Z,22.60
2023-09-06T22:13:04.110Z,22.50
2023-09-06T22:15:31.668Z,22.50
2023-09-06T22:17:58.875Z,22.40
2023-09-06T22:20:31.194Z,22.40
2023-09-06T22:22:58.556Z,22.40
2023-09-06T22:25:25.869Z,22.40
2023-09-06T22:27:53.007Z,22.30
2023-09-06T22:30:20.599Z,22.30
2023-09-06T22:32:47.741Z,22.20
2023-09-06T22:35:14.683Z,22.20
2023-09-06T22:37:42.771Z,22.20
2023-09-06T22:40:13.395Z,22.10
2023-09-06T22:42:40.444Z,22.10
2023-09-06T22:45:07.640Z,22.10
2023-09-06T22:47:34.579Z,22.00
2023-09-06T22:50:01.515Z,22.00
2023-09-06T22:52:28.499Z,22.00
2023-09-06T22:54:56.143Z,22.00
2023-09-06T22:57:23.360Z,22.00
2023-09-06T22:59:50.222Z,22.00
2023-09-06T23:02:17.121Z,21.90
2023-09-06T23:04:45.015Z,22.00
2023-09-06T23:07:12.134Z,22.00
2023-09-06T23:09:39.052Z,21.90
2023-09-06T23:12:06.427Z,21.90
2023-09-06T23:14:38.079Z,21.90
2023-09-06T23:17:09.251Z,21.80
2023-09-06T23:19:44.969Z,21.80
2023-09-06T23:22:15.512Z,21.70
2023-09-06T23:24:45.101Z,21.60
2023-09-06T23:27:18.770Z,21.60
2023-09-06T23:29:51.855Z,21.60
2023-09-06T23:32:21.140Z,21.50
2023-09-06T23:34:50.539Z,21.50
2023-09-06T23:37:18.362Z,21.40
2023-09-06T23:39:48.326Z,21.50
2023-09-06T23:42:17.932Z,21.40
2023-09-06T23:44:47.166Z,21.50
2023-09-06T23:47:16.920Z,21.40
2023-09-06T23:49:46.630Z,21.40
2023-09-06T23:52:14.374Z,21.40
2023-09-06T23:54:47.943Z,21.40
2023-09-06T23:57:18.641Z,21.40
2023-09-06T23:59:46.874Z,21.30
